createdAt,value
2019-03-22T00:00:20.092Z,7.99
2019-03-22T00:02:49.412Z,7.85
2019-03-22T00:05:19.399Z,8.09
2019-03-22T00:07:48.862Z,7.68
2019-03-22T00:10:18.806Z,7.50
2019-03-22T00:12:48.112Z,7.52
2019-03-22T00:15:17.420Z,7.32
2019-03-22T00:17:46.740Z,7.47
2019-03-22T00:20:16.394Z,7.43
2019-03-22T00:22:45.700Z,7.70
2019-03-22T00:25:15.198Z,7.89
2019-03-22T00:27:44.495Z,8.01
2019-03-22T00:30:14.113Z,7.96
2019-03-22T00:32:43.513Z,7.91
2019-03-22T00:35:14.026Z,7.68
2019-03-22T00:37:43.344Z,7.65
2019-03-22T00:40:13.156Z,7.57
2019-03-22T00:42:42.482Z,7.53
2019-03-22T00:45:12.341Z,7.64
2019-03-22T00:47:41.727Z,7.62
2019-03-22T00:50:12.786Z,7.51
2019-03-22T00:52:42.089Z,7.48
2019-03-22T00:55:11.843Z,7.38
2019-03-22T00:57:41.425Z,7.24
2019-03-22T01:00:15.869Z,7.24
2019-03-22T01:02:45.154Z,7.12
2019-03-22T01:05:16.255Z,7.01
2019-03-22T01:07:45.807Z,7.01
2019-03-22T01:10:15.265Z,7.12
2019-03-22T01:12:44.552Z,7.19
2019-03-22T01:15:14.543Z,7.22
2019-03-22T01:17:44.213Z,7.22
2019-03-22T01:20:14.139Z,7.37
2019-03-22T01:22:43.621Z,7.37
2019-03-22T01:25:13.418Z,7.50
2019-03-22T01:27:45.815Z,7.59
2019-03-22T01:30:18.636Z,7.54
2019-03-22T01:32:47.916Z,7.49
2019-03-22T01:35:17.233Z,7.42
2019-03-22T01:37:46.553Z,7.39
2019-03-22T01:40:16.404Z,7.28
2019-03-22T01:42:45.684Z,7.28
2019-03-22T01:45:16.437Z,6.92
2019-03-22T01:47:45.788Z,6.84
2019-03-22T01:50:16.969Z,6.78
2019-03-22T01:52:46.420Z,6.78
2019-03-22T01:55:15.914Z,6.58
2019-03-22T01:57:53.277Z,6.58
2019-03-22T02:00:18.243Z,6.55
2019-03-22T02:02:47.565Z,6.55
2019-03-22T02:05:16.940Z,6.44
2019-03-22T02:07:46.295Z,6.54
2019-03-22T02:10:15.807Z,6.53
2019-03-22T02:12:45.099Z,6.53
2019-03-22T02:15:18.001Z,6.37
2019-03-22T02:17:47.381Z,6.33
2019-03-22T02:20:17.926Z,6.33
2019-03-22T02:22:47.371Z,6.37
2019-03-22T02:25:17.126Z,6.15
2019-03-22T02:27:46.466Z,6.15
2019-03-22T02:30:18.044Z,6.35
2019-03-22T02:32:47.407Z,6.35
2019-03-22T02:35:28.451Z,6.08
2019-03-22T02:37:47.718Z,6.08
2019-03-22T02:40:17.066Z,5.82
2019-03-22T02:42:46.541Z,5.82
2019-03-22T02:45:16.463Z,5.86
2019-03-22T02:47:46.142Z,5.95
2019-03-22T02:50:19.464Z,5.97
2019-03-22T02:52:47.498Z,5.97
2019-03-22T02:55:16.803Z,5.94
2019-03-22T02:57:46.095Z,5.80
2019-03-22T03:00:17.346Z,5.76
2019-03-22T03:02:46.958Z,5.72
2019-03-22T03:05:16.771Z,5.74
2019-03-22T03:07:46.147Z,5.78
2019-03-22T03:10:17.026Z,5.59
2019-03-22T03:12:46.815Z,5.59
2019-03-22T03:15:19.459Z,5.78
2019-03-22T03:17:48.826Z,5.80
2019-03-22T03:20:19.563Z,5.61
2019-03-22T03:22:48.883Z,5.63
2019-03-22T03:25:18.611Z,5.66
2019-03-22T03:27:48.174Z,5.50
2019-03-22T03:30:22.122Z,5.42
2019-03-22T03:32:51.514Z,5.36
2019-03-22T03:35:20.899Z,5.44
2019-03-22T03:37:50.253Z,5.44
2019-03-22T03:40:19.716Z,5.40
2019-03-22T03:42:49.108Z,5.47
2019-03-22T03:45:32.066Z,5.66
2019-03-22T03:48:02.594Z,5.77
2019-03-22T03:50:32.682Z,5.48
2019-03-22T03:53:02.207Z,5.51
2019-03-22T03:55:31.687Z,5.38
2019-03-22T03:58:03.937Z,5.35
2019-03-22T04:00:33.801Z,5.53
2019-03-22T04:03:03.330Z,5.49
2019-03-22T04:05:32.750Z,5.41
2019-03-22T04:08:02.362Z,5.55
2019-03-22T04:10:32.262Z,5.40
2019-03-22T04:13:01.561Z,5.43
2019-03-22T04:15:30.878Z,5.48
2019-03-22T04:18:00.234Z,5.41
2019-03-22T04:20:29.538Z,5.40
2019-03-22T04:22:58.822Z,5.36
2019-03-22T04:25:28.790Z,5.64
2019-03-22T04:27:58.132Z,5.56
2019-03-22T04:30:27.460Z,5.51
2019-03-22T04:32:57.162Z,5.39
2019-03-22T04:35:26.615Z,5.38
2019-03-22T04:37:56.321Z,5.22
2019-03-22T04:40:27.716Z,5.35
2019-03-22T04:42:57.714Z,5.12
2019-03-22T04:45:29.538Z,5.30
2019-03-22T04:48:01.883Z,5.32
2019-03-22T04:50:34.322Z,5.51
2019-03-22T04:53:04.873Z,5.47
2019-03-22T04:55:36.205Z,5.45
2019-03-22T04:58:07.154Z,5.34
2019-03-22T05:00:37.767Z,5.22
2019-03-22T05:03:08.811Z,5.10
2019-03-22T05:05:38.999Z,4.95
2019-03-22T05:08:09.451Z,5.23
2019-03-22T05:10:39.671Z,5.22
2019-03-22T05:13:12.008Z,5.13
2019-03-22T05:15:42.630Z,5.09
2019-03-22T05:18:12.368Z,5.08
2019-03-22T05:20:44.476Z,5.12
2019-03-22T05:23:15.836Z,4.84
2019-03-22T05:25:47.199Z,4.67
2019-03-22T05:28:17.406Z,4.66
2019-03-22T05:31:10.581Z,4.90
2019-03-22T05:33:40.367Z,4.98
2019-03-22T05:36:09.647Z,5.02
2019-03-22T05:38:38.956Z,4.97
2019-03-22T05:41:08.315Z,5.04
2019-03-22T05:43:37.609Z,5.08
2019-03-22T05:46:06.963Z,5.06
2019-03-22T05:48:36.266Z,5.06
2019-03-22T05:51:05.559Z,5.16
2019-03-22T05:53:34.907Z,5.13
2019-03-22T05:56:04.226Z,5.10
2019-03-22T05:58:33.504Z,5.22
2019-03-22T06:01:03.093Z,5.08
2019-03-22T06:03:32.400Z,5.25
2019-03-22T06:06:01.687Z,5.08
2019-03-22T06:08:31.098Z,5.04
2019-03-22T06:11:00.503Z,4.97
2019-03-22T06:13:29.802Z,5.23
2019-03-22T06:15:59.120Z,5.13
2019-03-22T06:18:28.434Z,5.42
2019-03-22T06:20:57.698Z,5.57
2019-03-22T06:23:26.998Z,5.81
2019-03-22T06:25:56.299Z,5.89
2019-03-22T06:28:25.679Z,6.42
2019-03-22T06:30:54.991Z,6.65
2019-03-22T06:33:24.614Z,6.98
2019-03-22T06:35:53.923Z,6.98
2019-03-22T06:38:23.200Z,7.05
2019-03-22T06:40:52.605Z,7.14
2019-03-22T06:43:21.904Z,7.27
2019-03-22T06:45:51.219Z,7.55
2019-03-22T06:48:20.532Z,7.62
2019-03-22T06:50:49.846Z,8.10
2019-03-22T06:53:19.123Z,8.10
2019-03-22T06:55:48.510Z,8.39
2019-03-22T06:58:17.817Z,8.91
2019-03-22T07:00:47.145Z,9.05
2019-03-22T07:03:16.459Z,9.15
2019-03-22T07:05:45.744Z,9.06
2019-03-22T07:08:15.105Z,9.35
2019-03-22T07:10:44.465Z,9.68
2019-03-22T07:13:13.779Z,9.95
2019-03-22T07:15:43.072Z,10.20
2019-03-22T07:18:12.371Z,9.99
2019-03-22T07:20:41.958Z,10.67
2019-03-22T07:23:11.268Z,10.86
2019-03-22T07:25:40.586Z,10.47
2019-03-22T07:28:09.893Z,10.69
2019-03-22T07:30:39.206Z,11.74
2019-03-22T07:33:08.522Z,12.00
2019-03-22T07:35:37.808Z,11.98
2019-03-22T07:38:07.106Z,11.81
2019-03-22T07:40:36.492Z,11.69
2019-03-22T07:43:05.801Z,11.45
2019-03-22T07:45:35.096Z,11.79
2019-03-22T07:48:04.472Z,11.16
2019-03-22T07:50:34.095Z,11.38
2019-03-22T07:53:03.426Z,11.40
2019-03-22T07:55:33.138Z,11.99
2019-03-22T07:58:02.492Z,12.36
2019-03-22T08:00:32.250Z,12.24
2019-03-22T08:03:01.567Z,12.41
2019-03-22T08:05:30.847Z,12.38
2019-03-22T08:08:00.250Z,12.71
2019-03-22T08:10:29.609Z,12.37
2019-03-22T08:12:58.936Z,13.04
2019-03-22T08:15:32.335Z,13.08
2019-03-22T08:30:15.274Z,17.50
2019-03-22T08:32:44.553Z,17.93
2019-03-22T08:35:13.932Z,17.79
2019-03-22T08:37:52.105Z,17.73
2019-03-22T08:40:14.843Z,14.56
2019-03-22T08:42:44.332Z,16.15
2019-03-22T08:45:14.168Z,17.66
2019-03-22T08:47:43.479Z,18.77
2019-03-22T08:50:13.320Z,18.34
2019-03-22T08:52:42.624Z,19.38
2019-03-22T08:55:11.920Z,15.75
2019-03-22T08:57:41.350Z,16.78
2019-03-22T09:00:13.808Z,18.03
2019-03-22T09:02:43.071Z,18.25
2019-03-22T09:05:12.818Z,16.51
2019-03-22T09:07:42.235Z,17.70
2019-03-22T09:10:15.539Z,17.91
2019-03-22T09:12:44.861Z,18.77
2019-03-22T09:15:14.144Z,18.87
2019-03-22T09:17:43.466Z,18.66
2019-03-22T09:20:13.491Z,19.09
2019-03-22T09:22:42.745Z,17.29
2019-03-22T09:25:12.163Z,18.37
2019-03-22T09:27:41.522Z,18.59
2019-03-22T09:30:14.134Z,18.76
2019-03-22T09:32:43.678Z,18.77
2019-03-22T09:35:13.253Z,17.86
2019-03-22T09:37:43.039Z,17.85
2019-03-22T09:40:12.867Z,18.44
2019-03-22T09:42:42.489Z,19.77
2019-03-22T09:45:14.301Z,20.88
2019-03-22T09:47:43.909Z,20.30
2019-03-22T09:50:14.107Z,20.76
2019-03-22T09:52:43.587Z,20.82
2019-03-22T09:55:14.462Z,22.56
2019-03-22T09:57:44.306Z,22.94
2019-03-22T10:00:31.243Z,23.28
2019-03-22T10:03:01.546Z,18.94
2019-03-22T10:05:30.928Z,20.62
2019-03-22T10:08:00.590Z,21.16
2019-03-22T10:10:29.897Z,21.84
2019-03-22T10:12:59.271Z,23.19
2019-03-22T10:15:28.605Z,22.88
2019-03-22T10:20:26.231Z,23.09
2019-03-22T10:22:55.550Z,19.38
2019-03-22T10:25:24.838Z,20.46
2019-03-22T10:27:54.160Z,21.22
2019-03-22T10:30:23.605Z,20.42
2019-03-22T10:32:52.894Z,19.01
2019-03-22T10:35:26.468Z,19.13
2019-03-22T10:38:00.451Z,19.04
2019-03-22T10:40:24.278Z,18.27
2019-03-22T10:42:53.542Z,19.88
2019-03-22T10:45:22.848Z,20.32
2019-03-22T10:47:52.248Z,18.97
2019-03-22T10:50:21.535Z,19.12
2019-03-22T10:52:50.844Z,19.46
2019-03-22T10:55:29.800Z,18.82
2019-03-22T10:57:51.150Z,18.52
2019-03-22T11:00:20.495Z,20.42
2019-03-22T11:02:49.868Z,20.90
2019-03-22T11:05:19.168Z,21.13
2019-03-22T11:07:48.590Z,20.84
2019-03-22T11:10:17.964Z,21.73
2019-03-22T11:12:47.259Z,22.54
2019-03-22T11:15:17.019Z,23.37
2019-03-22T11:17:46.331Z,24.60
2019-03-22T11:20:17.872Z,24.08
2019-03-22T11:22:47.181Z,25.53
2019-03-22T11:25:16.856Z,25.95
2019-03-22T11:27:46.139Z,24.24
2019-03-22T11:30:19.002Z,24.10
2019-03-22T11:32:48.302Z,26.16
2019-03-22T11:35:17.880Z,23.12
2019-03-22T11:37:47.552Z,25.54
2019-03-22T11:40:18.648Z,26.69
2019-03-22T11:42:48.305Z,26.27
2019-03-22T11:45:20.432Z,24.16
2019-03-22T11:47:50.679Z,24.82
2019-03-22T11:50:19.990Z,24.44
2019-03-22T11:52:49.352Z,22.33
2019-03-22T11:55:18.923Z,23.42
2019-03-22T11:57:48.270Z,24.29
2019-03-22T12:00:20.643Z,23.58
2019-03-22T12:02:49.983Z,24.10
2019-03-22T12:05:20.897Z,22.76
2019-03-22T12:07:51.037Z,23.03
2019-03-22T12:10:21.474Z,23.86
2019-03-22T12:12:50.848Z,23.91
2019-03-22T12:15:22.671Z,24.29
2019-03-22T12:17:52.051Z,24.35
2019-03-22T12:20:24.943Z,24.49
2019-03-22T12:22:54.376Z,25.06
2019-03-22T12:25:25.695Z,25.78
2019-03-22T12:27:55.066Z,25.64
2019-03-22T12:30:24.438Z,23.94
2019-03-22T12:32:53.740Z,24.27
2019-03-22T12:35:23.219Z,22.52
2019-03-22T12:37:52.573Z,25.22
2019-03-22T12:40:22.941Z,25.38
2019-03-22T12:42:52.749Z,25.79
2019-03-22T12:45:30.965Z,24.74
2019-03-22T12:48:02.879Z,24.42
2019-03-22T12:50:32.451Z,25.51
2019-03-22T12:53:01.734Z,24.70
2019-03-22T12:55:31.052Z,26.02
2019-03-22T12:58:00.364Z,25.34
2019-03-22T13:00:29.871Z,23.88
2019-03-22T13:02:59.369Z,21.69
2019-03-22T13:05:28.662Z,21.40
2019-03-22T13:07:57.973Z,21.41
2019-03-22T13:10:28.626Z,21.36
2019-03-22T13:12:58.199Z,21.24
2019-03-22T13:15:27.498Z,20.92
2019-03-22T13:17:57.050Z,21.41
2019-03-22T13:20:26.510Z,21.09
2019-03-22T13:22:55.789Z,21.47
2019-03-22T13:25:25.083Z,20.81
2019-03-22T13:27:54.395Z,21.10
2019-03-22T13:30:35.067Z,21.18
2019-03-22T13:33:05.420Z,20.47
2019-03-22T13:35:35.085Z,20.63
2019-03-22T13:38:05.229Z,20.94
2019-03-22T13:40:34.526Z,20.95
2019-03-22T13:43:03.972Z,20.82
2019-03-22T13:45:33.365Z,20.88
2019-03-22T13:48:03.035Z,20.99
2019-03-22T13:50:32.399Z,20.66
2019-03-22T13:53:01.751Z,20.83
2019-03-22T13:55:31.059Z,20.90
2019-03-22T13:58:00.385Z,20.97
2019-03-22T14:00:29.850Z,20.98
2019-03-22T14:03:02.978Z,20.64
2019-03-22T14:05:30.210Z,20.95
2019-03-22T14:07:59.517Z,21.14
2019-03-22T14:10:33.521Z,20.87
2019-03-22T14:13:05.957Z,20.73
2019-03-22T14:15:35.338Z,20.79
2019-03-22T14:18:05.166Z,20.87
2019-03-22T14:20:34.554Z,20.56
2019-03-22T14:23:04.457Z,20.72
2019-03-22T14:25:33.809Z,20.55
2019-03-22T14:28:04.523Z,20.52
2019-03-22T14:30:33.901Z,20.67
2019-03-22T14:33:12.830Z,20.79
2019-03-22T14:35:34.315Z,20.59
2019-03-22T14:38:03.711Z,20.64
2019-03-22T14:40:32.999Z,20.59
2019-03-22T14:43:02.292Z,20.44
2019-03-22T14:45:31.627Z,20.53
2019-03-22T14:48:00.929Z,20.44
2019-03-22T14:50:30.225Z,20.42
2019-03-22T14:52:59.786Z,20.44
2019-03-22T14:55:29.095Z,20.65
2019-03-22T14:57:58.379Z,20.66
2019-03-22T15:00:28.034Z,20.76
2019-03-22T15:02:57.647Z,20.66
2019-03-22T15:05:27.285Z,20.79
2019-03-22T15:07:56.576Z,20.53
2019-03-22T15:10:25.879Z,20.73
2019-03-22T15:12:55.714Z,20.62
2019-03-22T15:15:29.359Z,20.42
2019-03-22T15:18:15.281Z,20.52
2019-03-22T15:21:04.245Z,20.65
2019-03-22T15:23:35.183Z,20.50
2019-03-22T15:26:06.316Z,20.71
2019-03-22T15:28:43.696Z,20.64
2019-03-22T15:31:17.498Z,20.65
2019-03-22T15:33:48.656Z,20.39
2019-03-22T15:36:32.639Z,20.46
2019-03-22T15:39:16.081Z,20.39
2019-03-22T15:41:45.635Z,20.43
2019-03-22T15:44:15.180Z,20.49
2019-03-22T15:46:44.498Z,20.52
2019-03-22T15:49:13.802Z,20.38
2019-03-22T15:51:43.361Z,20.02
2019-03-22T15:54:12.821Z,20.17
2019-03-22T15:56:42.104Z,20.25
2019-03-22T15:59:11.637Z,20.24
2019-03-22T16:01:40.918Z,20.34
2019-03-22T16:04:10.476Z,20.27
2019-03-22T16:06:39.963Z,20.25
2019-03-22T16:09:10.222Z,20.16
2019-03-22T16:11:39.572Z,20.37
2019-03-22T16:14:09.015Z,20.12
2019-03-22T16:16:38.651Z,20.03
2019-03-22T16:19:07.969Z,20.15
2019-03-22T16:21:37.237Z,20.07
2019-03-22T16:24:06.630Z,20.12
2019-03-22T16:26:35.920Z,19.97
2019-03-22T16:29:05.213Z,20.01
2019-03-22T16:31:34.680Z,19.90
2019-03-22T16:34:04.139Z,19.89
2019-03-22T16:36:33.413Z,19.93
2019-03-22T16:39:02.748Z,19.95
2019-03-22T16:41:32.051Z,19.81
2019-03-22T16:44:01.348Z,19.84
2019-03-22T16:46:30.653Z,19.69
2019-03-22T16:49:00.102Z,19.68
2019-03-22T16:51:29.407Z,19.64
2019-03-22T16:53:58.701Z,19.69
2019-03-22T16:56:28.083Z,19.64
2019-03-22T16:58:57.464Z,19.64
2019-03-22T17:01:26.748Z,19.56
2019-03-22T17:04:04.122Z,19.53
2019-03-22T17:06:27.041Z,19.52
2019-03-22T17:08:56.343Z,19.39
2019-03-22T17:11:25.631Z,19.43
2019-03-22T17:13:54.942Z,19.23
2019-03-22T17:16:24.216Z,19.24
2019-03-22T17:18:53.518Z,19.08
2019-03-22T17:21:22.796Z,19.14
2019-03-22T17:23:52.113Z,19.03
2019-03-22T17:26:21.389Z,18.93
2019-03-22T17:28:50.671Z,18.75
2019-03-22T17:31:19.994Z,18.79
2019-03-22T17:33:49.270Z,18.70
2019-03-22T17:36:18.546Z,18.51
2019-03-22T17:38:47.850Z,18.43
2019-03-22T17:41:17.355Z,18.35
2019-03-22T17:43:46.690Z,18.29
2019-03-22T17:46:15.979Z,18.28
2019-03-22T17:48:45.372Z,18.22
2019-03-22T17:51:14.648Z,18.20
2019-03-22T17:53:44.024Z,18.01
2019-03-22T17:56:13.347Z,18.00
2019-03-22T17:58:42.673Z,18.01
2019-03-22T18:01:12.025Z,17.86
2019-03-22T18:03:41.370Z,17.88
2019-03-22T18:06:10.680Z,17.64
2019-03-22T18:08:40.011Z,17.62
2019-03-22T18:11:09.307Z,17.54
2019-03-22T18:13:38.752Z,17.54
2019-03-22T18:16:08.078Z,17.49
2019-03-22T18:18:37.796Z,17.52
2019-03-22T18:21:07.090Z,17.49
2019-03-22T18:23:36.413Z,17.49
2019-03-22T18:26:05.794Z,17.46
2019-03-22T18:28:35.099Z,17.40
2019-03-22T18:31:04.738Z,17.30
2019-03-22T18:33:34.074Z,17.19
2019-03-22T18:36:03.376Z,17.17
2019-03-22T18:38:32.775Z,17.15
2019-03-22T18:41:02.177Z,17.09
2019-03-22T18:43:31.504Z,16.98
2019-03-22T18:46:00.999Z,16.92
2019-03-22T18:48:30.295Z,16.87
2019-03-22T18:50:59.621Z,16.83
2019-03-22T18:53:28.996Z,16.74
2019-03-22T18:55:58.327Z,16.68
2019-03-22T18:58:29.286Z,16.59
2019-03-22T19:00:58.592Z,16.54
2019-03-22T19:03:27.912Z,16.44
2019-03-22T19:05:57.263Z,16.31
2019-03-22T19:08:26.642Z,16.24
2019-03-22T19:10:56.141Z,16.19
2019-03-22T19:13:30.574Z,16.08
2019-03-22T19:15:56.530Z,15.74
2019-03-22T19:18:25.939Z,15.72
2019-03-22T19:20:55.298Z,15.72
2019-03-22T19:23:24.890Z,15.60
2019-03-22T19:25:54.288Z,15.48
2019-03-22T19:28:23.676Z,15.05
2019-03-22T19:30:53.006Z,15.01
2019-03-22T19:33:22.394Z,14.76
2019-03-22T19:35:51.680Z,14.52
2019-03-22T19:38:21.026Z,14.28
2019-03-22T19:40:50.455Z,14.16
2019-03-22T19:43:19.906Z,13.99
2019-03-22T19:45:49.291Z,14.01
2019-03-22T19:48:18.925Z,13.96
2019-03-22T19:50:48.349Z,13.94
2019-03-22T19:53:17.729Z,13.79
2019-03-22T19:55:47.225Z,13.60
2019-03-22T19:58:16.701Z,13.57
2019-03-22T20:00:46.174Z,13.53
2019-03-22T20:03:15.461Z,13.51
2019-03-22T20:05:44.838Z,13.41
2019-03-22T20:08:14.129Z,13.29
2019-03-22T20:10:43.449Z,12.94
2019-03-22T20:13:12.872Z,12.95
2019-03-22T20:15:42.268Z,12.84
2019-03-22T20:18:11.779Z,12.85
2019-03-22T20:20:41.270Z,12.79
2019-03-22T20:23:10.810Z,13.01
2019-03-22T20:25:40.097Z,12.94
2019-03-22T20:28:09.419Z,12.74
2019-03-22T20:30:38.800Z,12.88
2019-03-22T20:33:08.425Z,12.86
2019-03-22T20:35:37.752Z,12.79
2019-03-22T20:38:07.095Z,12.77
2019-03-22T20:40:36.672Z,12.70
2019-03-22T20:43:05.995Z,12.63
2019-03-22T20:45:35.535Z,12.63
2019-03-22T20:48:05.026Z,12.62
2019-03-22T20:50:36.057Z,12.43
2019-03-22T20:53:05.490Z,12.26
2019-03-22T20:55:35.154Z,12.39
2019-03-22T20:58:04.644Z,12.47
2019-03-22T21:00:34.290Z,12.47
2019-03-22T21:03:03.859Z,12.44
2019-03-22T21:05:33.365Z,12.50
2019-03-22T21:08:02.680Z,12.40
2019-03-22T21:10:32.111Z,12.33
2019-03-22T21:13:01.599Z,12.22
2019-03-22T21:15:31.020Z,12.08
2019-03-22T21:18:00.310Z,12.01
2019-03-22T21:20:29.623Z,12.07
2019-03-22T21:22:59.106Z,12.17
2019-03-22T21:25:28.589Z,12.05
2019-03-22T21:27:58.109Z,11.95
2019-03-22T21:30:27.546Z,12.02
2019-03-22T21:32:57.138Z,11.81
2019-03-22T21:35:36.654Z,11.46
2019-03-22T21:37:57.512Z,11.52
2019-03-22T21:40:26.818Z,11.33
2019-03-22T21:42:56.375Z,11.22
2019-03-22T21:45:25.668Z,11.03
2019-03-22T21:47:54.983Z,10.95
2019-03-22T21:50:24.460Z,10.80
2019-03-22T21:52:53.778Z,10.96
2019-03-22T21:55:23.058Z,10.94
2019-03-22T21:57:52.565Z,11.02
2019-03-22T22:00:21.851Z,10.92
2019-03-22T22:02:51.173Z,11.10
2019-03-22T22:05:20.459Z,10.78
2019-03-22T22:07:49.966Z,10.85
2019-03-22T22:10:19.246Z,10.80
2019-03-22T22:12:48.703Z,10.67
2019-03-22T22:15:17.979Z,10.46
2019-03-22T22:17:47.298Z,10.55
2019-03-22T22:20:16.665Z,10.52
2019-03-22T22:22:46.102Z,10.44
2019-03-22T22:25:15.407Z,10.44
2019-03-22T22:27:44.913Z,10.35
2019-03-22T22:30:14.639Z,10.02
2019-03-22T22:32:44.228Z,10.43
2019-03-22T22:35:13.700Z,10.37
2019-03-22T22:37:43.232Z,10.33
2019-03-22T22:40:13.652Z,10.13
2019-03-22T22:42:43.275Z,10.02
2019-03-22T22:45:13.029Z,10.04
2019-03-22T22:47:42.596Z,10.11
2019-03-22T22:50:12.605Z,9.87
2019-03-22T22:52:42.150Z,9.90
2019-03-22T22:55:11.898Z,9.82
2019-03-22T22:57:43.064Z,9.47
2019-03-22T23:00:14.394Z,9.55
2019-03-22T23:02:44.803Z,9.80
2019-03-22T23:05:15.297Z,9.66
2019-03-22T23:07:44.980Z,9.73
2019-03-22T23:10:14.625Z,9.66
2019-03-22T23:12:44.362Z,9.76
2019-03-22T23:15:14.051Z,9.61
2019-03-22T23:17:43.596Z,9.54
2019-03-22T23:20:13.157Z,9.84
2019-03-22T23:22:42.626Z,9.67
2019-03-22T23:25:12.190Z,9.57
2019-03-22T23:27:41.588Z,9.76
2019-03-22T23:30:12.612Z,9.56
2019-03-22T23:32:42.166Z,9.65
2019-03-22T23:35:12.409Z,9.38
2019-03-22T23:37:41.779Z,9.13
2019-03-22T23:40:11.301Z,9.25
2019-03-22T23:42:40.589Z,8.87
2019-03-22T23:45:11.427Z,9.15
2019-03-22T23:47:41.729Z,9.17
2019-03-22T23:50:11.564Z,9.09
2019-03-22T23:52:40.938Z,9.23
2019-03-22T23:55:10.567Z,8.82
2019-03-22T23:57:39.857Z,8.86
